sensor_id;sensor_type;location;lat;lon;timestamp;P1;durP1;ratioP1;P2;durP2;ratioP2
43154;SDS011;34212;51.018;13.586;2022-11-27T00:01:57;13.27;;;7.78;;
43154;SDS011;34212;51.018;13.586;2022-11-27T00:06:58;16.20;;;8.05;;
43154;SDS011;34212;51.018;13.586;2022-11-27T00:12:00;17.35;;;8.80;;
43154;SDS011;34212;51.018;13.586;2022-11-27T00:17:01;14.43;;;8.63;;
43154;SDS011;34212;51.018;13.586;2022-11-27T00:22:03;14.63;;;8.13;;
43154;SDS011;34212;51.018;13.586;2022-11-27T00:27:04;17.48;;;8.75;;
43154;SDS011;34212;51.018;13.586;2022-11-27T00:32:06;18.08;;;8.40;;
43154;SDS011;34212;51.018;13.586;2022-11-27T00:37:08;19.67;;;8.47;;
43154;SDS011;34212;51.018;13.586;2022-11-27T00:42:09;19.40;;;8.93;;
43154;SDS011;34212;51.018;13.586;2022-11-27T00:47:11;10.50;;;6.97;;
43154;SDS011;34212;51.018;13.586;2022-11-27T00:52:12;15.93;;;8.02;;
43154;SDS011;34212;51.018;13.586;2022-11-27T00:57:14;13.40;;;7.78;;
43154;SDS011;34212;51.018;13.586;2022-11-27T01:02:15;13.07;;;7.57;;
43154;SDS011;34212;51.018;13.586;2022-11-27T01:07:16;13.13;;;7.20;;
43154;SDS011;34212;51.018;13.586;2022-11-27T01:12:18;13.15;;;7.72;;
43154;SDS011;34212;51.018;13.586;2022-11-27T01:17:19;13.88;;;7.47;;
43154;SDS011;34212;51.018;13.586;2022-11-27T01:22:21;14.05;;;7.60;;
43154;SDS011;34212;51.018;13.586;2022-11-27T01:27:22;15.02;;;7.78;;
43154;SDS011;34212;51.018;13.586;2022-11-27T01:32:24;14.32;;;7.00;;
43154;SDS011;34212;51.018;13.586;2022-11-27T01:37:26;13.27;;;6.40;;
43154;SDS011;34212;51.018;13.586;2022-11-27T01:42:27;19.50;;;6.65;;
43154;SDS011;34212;51.018;13.586;2022-11-27T01:47:37;16.25;;;6.78;;
43154;SDS011;34212;51.018;13.586;2022-11-27T01:52:45;13.15;;;6.25;;
43154;SDS011;34212;51.018;13.586;2022-11-27T01:57:52;16.58;;;7.13;;
43154;SDS011;34212;51.018;13.586;2022-11-27T02:03:02;14.20;;;6.15;;
43154;SDS011;34212;51.018;13.586;2022-11-27T02:08:05;12.77;;;6.03;;
43154;SDS011;34212;51.018;13.586;2022-11-27T02:13:13;17.40;;;5.90;;
43154;SDS011;34212;51.018;13.586;2022-11-27T02:18:32;14.30;;;6.57;;
43154;SDS011;34212;51.018;13.586;2022-11-27T02:29:47;9.90;;;6.15;;
43154;SDS011;34212;51.018;13.586;2022-11-27T02:35:02;13.55;;;6.00;;
43154;SDS011;34212;51.018;13.586;2022-11-27T02:40:09;19.77;;;6.93;;
43154;SDS011;34212;51.018;13.586;2022-11-27T02:45:15;12.70;;;6.93;;
43154;SDS011;34212;51.018;13.586;2022-11-27T02:50:22;11.75;;;6.10;;
43154;SDS011;34212;51.018;13.586;2022-11-27T02:55:26;13.98;;;6.90;;
43154;SDS011;34212;51.018;13.586;2022-11-27T03:00:32;14.73;;;6.32;;
43154;SDS011;34212;51.018;13.586;2022-11-27T03:10:45;12.90;;;6.68;;
43154;SDS011;34212;51.018;13.586;2022-11-27T03:21:26;10.02;;;6.38;;
43154;SDS011;34212;51.018;13.586;2022-11-27T03:26:29;9.63;;;6.07;;
43154;SDS011;34212;51.018;13.586;2022-11-27T03:31:31;11.00;;;6.27;;
43154;SDS011;34212;51.018;13.586;2022-11-27T03:36:33;10.95;;;5.75;;
43154;SDS011;34212;51.018;13.586;2022-11-27T03:41:52;15.43;;;6.78;;
43154;SDS011;34212;51.018;13.586;2022-11-27T03:52:43;14.73;;;6.38;;
43154;SDS011;34212;51.018;13.586;2022-11-27T03:58:03;11.82;;;6.28;;
43154;SDS011;34212;51.018;13.586;2022-11-27T04:03:09;10.70;;;5.22;;
43154;SDS011;34212;51.018;13.586;2022-11-27T04:08:11;9.23;;;5.10;;
43154;SDS011;34212;51.018;13.586;2022-11-27T04:13:13;13.00;;;6.65;;
43154;SDS011;34212;51.018;13.586;2022-11-27T04:18:14;14.82;;;6.30;;
43154;SDS011;34212;51.018;13.586;2022-11-27T04:23:16;12.52;;;6.47;;
43154;SDS011;34212;51.018;13.586;2022-11-27T04:28:17;13.18;;;6.53;;
43154;SDS011;34212;51.018;13.586;2022-11-27T04:33:19;13.98;;;5.82;;
43154;SDS011;34212;51.018;13.586;2022-11-27T04:38:22;13.43;;;6.13;;
43154;SDS011;34212;51.018;13.586;2022-11-27T04:43:23;10.60;;;5.05;;
43154;SDS011;34212;51.018;13.586;2022-11-27T04:48:25;13.38;;;5.63;;
43154;SDS011;34212;51.018;13.586;2022-11-27T04:53:26;10.10;;;5.78;;
43154;SDS011;34212;51.018;13.586;2022-11-27T04:58:28;10.13;;;5.70;;
43154;SDS011;34212;51.018;13.586;2022-11-27T05:03:29;8.93;;;4.63;;
43154;SDS011;34212;51.018;13.586;2022-11-27T05:08:31;8.40;;;4.82;;
43154;SDS011;34212;51.018;13.586;2022-11-27T05:13:33;10.57;;;4.63;;
43154;SDS011;34212;51.018;13.586;2022-11-27T05:18:35;6.38;;;4.18;;
43154;SDS011;34212;51.018;13.586;2022-11-27T05:23:36;10.52;;;4.13;;
43154;SDS011;34212;51.018;13.586;2022-11-27T05:28:38;8.98;;;4.97;;
43154;SDS011;34212;51.018;13.586;2022-11-27T05:33:39;7.88;;;3.97;;
43154;SDS011;34212;51.018;13.586;2022-11-27T05:38:40;7.70;;;3.60;;
43154;SDS011;34212;51.018;13.586;2022-11-27T05:43:42;6.85;;;4.13;;
43154;SDS011;34212;51.018;13.586;2022-11-27T05:48:43;7.75;;;4.18;;
43154;SDS011;34212;51.018;13.586;2022-11-27T05:53:45;6.40;;;3.92;;
43154;SDS011;34212;51.018;13.586;2022-11-27T05:58:47;9.48;;;4.38;;
43154;SDS011;34212;51.018;13.586;2022-11-27T06:03:48;9.97;;;5.03;;
43154;SDS011;34212;51.018;13.586;2022-11-27T06:08:50;7.47;;;4.22;;
43154;SDS011;34212;51.018;13.586;2022-11-27T06:13:51;10.13;;;4.80;;
43154;SDS011;34212;51.018;13.586;2022-11-27T06:18:54;8.07;;;4.43;;
43154;SDS011;34212;51.018;13.586;2022-11-27T06:23:56;6.50;;;3.95;;
43154;SDS011;34212;51.018;13.586;2022-11-27T06:28:58;5.78;;;3.83;;
43154;SDS011;34212;51.018;13.586;2022-11-27T06:34:01;9.10;;;4.43;;
43154;SDS011;34212;51.018;13.586;2022-11-27T06:39:04;9.40;;;4.57;;
43154;SDS011;34212;51.018;13.586;2022-11-27T06:44:07;5.80;;;3.30;;
43154;SDS011;34212;51.018;13.586;2022-11-27T06:49:11;7.72;;;3.00;;
43154;SDS011;34212;51.018;13.586;2022-11-27T06:54:12;6.18;;;3.20;;
43154;SDS011;34212;51.018;13.586;2022-11-27T06:59:14;5.88;;;2.90;;
43154;SDS011;34212;51.018;13.586;2022-11-27T07:04:16;6.40;;;2.95;;
43154;SDS011;34212;51.018;13.586;2022-11-27T07:09:17;5.50;;;2.90;;
43154;SDS011;34212;51.018;13.586;2022-11-27T07:14:19;6.63;;;3.25;;
43154;SDS011;34212;51.018;13.586;2022-11-27T07:19:20;4.13;;;3.03;;
43154;SDS011;34212;51.018;13.586;2022-11-27T07:24:22;6.57;;;2.88;;
43154;SDS011;34212;51.018;13.586;2022-11-27T07:29:23;4.25;;;2.67;;
43154;SDS011;34212;51.018;13.586;2022-11-27T07:34:24;5.72;;;2.90;;
43154;SDS011;34212;51.018;13.586;2022-11-27T07:39:26;7.13;;;3.00;;
43154;SDS011;34212;51.018;13.586;2022-11-27T07:44:47;5.55;;;2.60;;
43154;SDS011;34212;51.018;13.586;2022-11-27T07:49:49;6.50;;;3.00;;
43154;SDS011;34212;51.018;13.586;2022-11-27T07:54:50;5.57;;;2.80;;
43154;SDS011;34212;51.018;13.586;2022-11-27T07:59:52;45.33;;;24.65;;
43154;SDS011;34212;51.018;13.586;2022-11-27T08:04:54;79.30;;;39.95;;
43154;SDS011;34212;51.018;13.586;2022-11-27T08:09:56;9.95;;;5.20;;
43154;SDS011;34212;51.018;13.586;2022-11-27T08:15:00;11.43;;;4.60;;
43154;SDS011;34212;51.018;13.586;2022-11-27T08:20:05;6.88;;;3.83;;
43154;SDS011;34212;51.018;13.586;2022-11-27T08:25:07;7.28;;;4.10;;
43154;SDS011;34212;51.018;13.586;2022-11-27T08:30:09;7.88;;;4.22;;
43154;SDS011;34212;51.018;13.586;2022-11-27T08:35:10;8.70;;;4.43;;
43154;SDS011;34212;51.018;13.586;2022-11-27T08:40:12;7.88;;;5.13;;
43154;SDS011;34212;51.018;13.586;2022-11-27T08:45:14;8.02;;;5.20;;
43154;SDS011;34212;51.018;13.586;2022-11-27T08:50:15;6.07;;;3.60;;
43154;SDS011;34212;51.018;13.586;2022-11-27T08:55:17;7.32;;;3.55;;
43154;SDS011;34212;51.018;13.586;2022-11-27T09:00:18;13.40;;;4.13;;
43154;SDS011;34212;51.018;13.586;2022-11-27T09:05:28;7.70;;;4.13;;
43154;SDS011;34212;51.018;13.586;2022-11-27T09:10:30;6.23;;;3.67;;
43154;SDS011;34212;51.018;13.586;2022-11-27T09:15:31;6.93;;;4.82;;
43154;SDS011;34212;51.018;13.586;2022-11-27T09:20:32;9.63;;;5.40;;
43154;SDS011;34212;51.018;13.586;2022-11-27T09:25:37;10.10;;;5.05;;
43154;SDS011;34212;51.018;13.586;2022-11-27T09:30:39;8.43;;;5.00;;
43154;SDS011;34212;51.018;13.586;2022-11-27T09:35:40;10.57;;;5.32;;
43154;SDS011;34212;51.018;13.586;2022-11-27T09:40:43;11.95;;;5.72;;
43154;SDS011;34212;51.018;13.586;2022-11-27T09:45:53;9.32;;;4.95;;
43154;SDS011;34212;51.018;13.586;2022-11-27T09:50:58;6.63;;;4.72;;
43154;SDS011;34212;51.018;13.586;2022-11-27T09:56:02;9.60;;;6.05;;
43154;SDS011;34212;51.018;13.586;2022-11-27T10:06:19;15.63;;;6.45;;
43154;SDS011;34212;51.018;13.586;2022-11-27T10:11:28;10.35;;;5.68;;
43154;SDS011;34212;51.018;13.586;2022-11-27T10:16:38;13.00;;;6.03;;
43154;SDS011;34212;51.018;13.586;2022-11-27T10:21:48;11.27;;;6.10;;
43154;SDS011;34212;51.018;13.586;2022-11-27T10:26:56;9.25;;;5.97;;
43154;SDS011;34212;51.018;13.586;2022-11-27T10:32:15;13.23;;;6.38;;
43154;SDS011;34212;51.018;13.586;2022-11-27T10:37:55;10.93;;;5.80;;
43154;SDS011;34212;51.018;13.586;2022-11-27T10:48:19;9.80;;;5.50;;
43154;SDS011;34212;51.018;13.586;2022-11-27T10:53:34;9.68;;;5.72;;
43154;SDS011;34212;51.018;13.586;2022-11-27T10:58:41;9.98;;;4.95;;
43154;SDS011;34212;51.018;13.586;2022-11-27T11:03:47;10.18;;;5.00;;
43154;SDS011;34212;51.018;13.586;2022-11-27T11:14:25;10.43;;;5.30;;
43154;SDS011;34212;51.018;13.586;2022-11-27T11:19:33;8.35;;;4.82;;
43154;SDS011;34212;51.018;13.586;2022-11-27T11:24:39;11.95;;;5.35;;
43154;SDS011;34212;51.018;13.586;2022-11-27T11:34:56;8.80;;;4.30;;
43154;SDS011;34212;51.018;13.586;2022-11-27T11:40:03;7.50;;;4.07;;
43154;SDS011;34212;51.018;13.586;2022-11-27T11:50:13;9.95;;;4.13;;
43154;SDS011;34212;51.018;13.586;2022-11-27T11:55:26;9.20;;;3.92;;
43154;SDS011;34212;51.018;13.586;2022-11-27T12:00:45;5.93;;;2.63;;
43154;SDS011;34212;51.018;13.586;2022-11-27T12:11:29;10.48;;;5.03;;
43154;SDS011;34212;51.018;13.586;2022-11-27T12:38:05;13.20;;;6.30;;
43154;SDS011;34212;51.018;13.586;2022-11-27T12:48:26;13.38;;;6.43;;
43154;SDS011;34212;51.018;13.586;2022-11-27T12:53:44;12.25;;;6.32;;
43154;SDS011;34212;51.018;13.586;2022-11-27T12:58:54;7.32;;;4.47;;
43154;SDS011;34212;51.018;13.586;2022-11-27T13:09:34;6.13;;;3.15;;
43154;SDS011;34212;51.018;13.586;2022-11-27T13:14:45;6.28;;;3.28;;
43154;SDS011;34212;51.018;13.586;2022-11-27T13:19:55;5.78;;;2.85;;
43154;SDS011;34212;51.018;13.586;2022-11-27T13:24:59;7.07;;;2.88;;
43154;SDS011;34212;51.018;13.586;2022-11-27T13:30:03;4.43;;;2.92;;
43154;SDS011;34212;51.018;13.586;2022-11-27T13:35:16;5.18;;;2.75;;
43154;SDS011;34212;51.018;13.586;2022-11-27T13:40:23;8.35;;;3.15;;
43154;SDS011;34212;51.018;13.586;2022-11-27T13:45:32;4.63;;;2.88;;
43154;SDS011;34212;51.018;13.586;2022-11-27T13:50:43;7.47;;;3.97;;
43154;SDS011;34212;51.018;13.586;2022-11-27T13:55:53;6.95;;;3.40;;
43154;SDS011;34212;51.018;13.586;2022-11-27T14:00:56;5.85;;;3.50;;
43154;SDS011;34212;51.018;13.586;2022-11-27T14:05:58;4.80;;;2.87;;
43154;SDS011;34212;51.018;13.586;2022-11-27T14:11:04;6.75;;;2.80;;
43154;SDS011;34212;51.018;13.586;2022-11-27T14:16:18;7.57;;;3.42;;
43154;SDS011;34212;51.018;13.586;2022-11-27T14:26:42;6.00;;;3.20;;
43154;SDS011;34212;51.018;13.586;2022-11-27T14:31:44;7.72;;;3.38;;
43154;SDS011;34212;51.018;13.586;2022-11-27T14:36:50;7.72;;;4.03;;
43154;SDS011;34212;51.018;13.586;2022-11-27T14:41:59;7.78;;;3.45;;
43154;SDS011;34212;51.018;13.586;2022-11-27T14:47:02;7.35;;;4.00;;
43154;SDS011;34212;51.018;13.586;2022-11-27T14:52:06;8.45;;;3.53;;
43154;SDS011;34212;51.018;13.586;2022-11-27T14:57:32;6.53;;;3.50;;
43154;SDS011;34212;51.018;13.586;2022-11-27T15:02:35;6.63;;;4.32;;
43154;SDS011;34212;51.018;13.586;2022-11-27T15:07:37;8.00;;;4.00;;
43154;SDS011;34212;51.018;13.586;2022-11-27T15:12:48;7.10;;;4.40;;
43154;SDS011;34212;51.018;13.586;2022-11-27T15:18:35;9.80;;;4.63;;
43154;SDS011;34212;51.018;13.586;2022-11-27T15:23:22;8.43;;;4.65;;
43154;SDS011;34212;51.018;13.586;2022-11-27T15:28:29;7.65;;;4.93;;
43154;SDS011;34212;51.018;13.586;2022-11-27T15:33:32;8.90;;;4.95;;
43154;SDS011;34212;51.018;13.586;2022-11-27T15:38:34;7.05;;;4.40;;
43154;SDS011;34212;51.018;13.586;2022-11-27T15:43:35;7.93;;;4.53;;
43154;SDS011;34212;51.018;13.586;2022-11-27T15:48:37;8.23;;;4.80;;
43154;SDS011;34212;51.018;13.586;2022-11-27T15:53:39;7.40;;;4.07;;
43154;SDS011;34212;51.018;13.586;2022-11-27T15:58:41;7.57;;;4.15;;
43154;SDS011;34212;51.018;13.586;2022-11-27T16:03:43;6.32;;;3.88;;
43154;SDS011;34212;51.018;13.586;2022-11-27T16:08:44;8.57;;;4.25;;
43154;SDS011;34212;51.018;13.586;2022-11-27T16:13:46;7.28;;;4.75;;
43154;SDS011;34212;51.018;13.586;2022-11-27T16:18:47;11.02;;;4.95;;
43154;SDS011;34212;51.018;13.586;2022-11-27T16:23:49;7.70;;;4.60;;
43154;SDS011;34212;51.018;13.586;2022-11-27T16:28:50;11.85;;;5.40;;
43154;SDS011;34212;51.018;13.586;2022-11-27T16:33:52;10.23;;;5.03;;
43154;SDS011;34212;51.018;13.586;2022-11-27T16:38:57;10.10;;;5.72;;
43154;SDS011;34212;51.018;13.586;2022-11-27T16:43:58;9.90;;;5.28;;
43154;SDS011;34212;51.018;13.586;2022-11-27T16:49:00;8.23;;;5.35;;
43154;SDS011;34212;51.018;13.586;2022-11-27T16:54:03;9.15;;;5.28;;
43154;SDS011;34212;51.018;13.586;2022-11-27T16:59:07;11.38;;;5.85;;
43154;SDS011;34212;51.018;13.586;2022-11-27T17:04:16;10.32;;;5.68;;
43154;SDS011;34212;51.018;13.586;2022-11-27T17:09:18;10.65;;;6.13;;
43154;SDS011;34212;51.018;13.586;2022-11-27T17:14:22;10.65;;;5.60;;
43154;SDS011;34212;51.018;13.586;2022-11-27T17:19:27;10.77;;;5.55;;
43154;SDS011;34212;51.018;13.586;2022-11-27T17:24:30;10.60;;;5.22;;
43154;SDS011;34212;51.018;13.586;2022-11-27T17:29:36;10.00;;;6.40;;
43154;SDS011;34212;51.018;13.586;2022-11-27T17:34:38;11.13;;;5.85;;
43154;SDS011;34212;51.018;13.586;2022-11-27T17:39:40;8.90;;;5.45;;
43154;SDS011;34212;51.018;13.586;2022-11-27T17:44:43;10.05;;;5.30;;
43154;SDS011;34212;51.018;13.586;2022-11-27T17:49:45;7.75;;;5.53;;
43154;SDS011;34212;51.018;13.586;2022-11-27T17:54:47;9.32;;;4.55;;
43154;SDS011;34212;51.018;13.586;2022-11-27T17:59:48;8.80;;;5.20;;
43154;SDS011;34212;51.018;13.586;2022-11-27T18:04:50;9.20;;;4.90;;
43154;SDS011;34212;51.018;13.586;2022-11-27T18:09:52;11.18;;;5.53;;
43154;SDS011;34212;51.018;13.586;2022-11-27T18:15:13;7.90;;;4.88;;
43154;SDS011;34212;51.018;13.586;2022-11-27T18:27:13;10.95;;;6.32;;
43154;SDS011;34212;51.018;13.586;2022-11-27T18:32:36;9.02;;;6.20;;
43154;SDS011;34212;51.018;13.586;2022-11-27T18:37:38;19.15;;;8.05;;
43154;SDS011;34212;51.018;13.586;2022-11-27T18:42:39;12.80;;;7.97;;
43154;SDS011;34212;51.018;13.586;2022-11-27T18:47:41;13.55;;;7.32;;
43154;SDS011;34212;51.018;13.586;2022-11-27T18:52:42;11.80;;;7.90;;
43154;SDS011;34212;51.018;13.586;2022-11-27T18:57:44;11.32;;;7.68;;
43154;SDS011;34212;51.018;13.586;2022-11-27T19:02:48;16.27;;;9.03;;
43154;SDS011;34212;51.018;13.586;2022-11-27T19:07:52;11.70;;;7.50;;
43154;SDS011;34212;51.018;13.586;2022-11-27T19:12:57;10.85;;;6.93;;
43154;SDS011;34212;51.018;13.586;2022-11-27T19:17:59;11.13;;;6.57;;
43154;SDS011;34212;51.018;13.586;2022-11-27T19:23:01;11.27;;;6.27;;
43154;SDS011;34212;51.018;13.586;2022-11-27T19:28:34;14.55;;;6.82;;
43154;SDS011;34212;51.018;13.586;2022-11-27T19:33:55;11.10;;;7.10;;
43154;SDS011;34212;51.018;13.586;2022-11-27T19:39:18;12.50;;;6.82;;
43154;SDS011;34212;51.018;13.586;2022-11-27T19:44:26;8.68;;;5.68;;
43154;SDS011;34212;51.018;13.586;2022-11-27T19:49:34;9.25;;;5.53;;
43154;SDS011;34212;51.018;13.586;2022-11-27T19:54:35;11.48;;;6.88;;
43154;SDS011;34212;51.018;13.586;2022-11-27T19:59:38;12.02;;;6.22;;
43154;SDS011;34212;51.018;13.586;2022-11-27T20:04:42;10.63;;;6.82;;
43154;SDS011;34212;51.018;13.586;2022-11-27T20:09:44;13.80;;;7.80;;
43154;SDS011;34212;51.018;13.586;2022-11-27T20:14:45;12.35;;;7.50;;
43154;SDS011;34212;51.018;13.586;2022-11-27T20:19:47;15.50;;;7.82;;
43154;SDS011;34212;51.018;13.586;2022-11-27T20:24:48;14.35;;;8.77;;
43154;SDS011;34212;51.018;13.586;2022-11-27T20:30:11;17.08;;;9.07;;
43154;SDS011;34212;51.018;13.586;2022-11-27T20:35:13;12.60;;;7.80;;
43154;SDS011;34212;51.018;13.586;2022-11-27T20:40:15;11.70;;;7.30;;
43154;SDS011;34212;51.018;13.586;2022-11-27T20:45:17;10.95;;;7.70;;
43154;SDS011;34212;51.018;13.586;2022-11-27T20:50:22;11.20;;;7.43;;
43154;SDS011;34212;51.018;13.586;2022-11-27T20:55:23;10.40;;;6.97;;
43154;SDS011;34212;51.018;13.586;2022-11-27T21:00:25;13.98;;;7.57;;
43154;SDS011;34212;51.018;13.586;2022-11-27T21:05:27;12.40;;;7.45;;
43154;SDS011;34212;51.018;13.586;2022-11-27T21:10:28;13.68;;;7.78;;
43154;SDS011;34212;51.018;13.586;2022-11-27T21:15:30;11.02;;;6.80;;
43154;SDS011;34212;51.018;13.586;2022-11-27T21:20:31;15.98;;;7.47;;
43154;SDS011;34212;51.018;13.586;2022-11-27T21:25:33;13.82;;;8.15;;
43154;SDS011;34212;51.018;13.586;2022-11-27T21:30:34;13.30;;;8.00;;
43154;SDS011;34212;51.018;13.586;2022-11-27T21:35:36;13.60;;;8.63;;
43154;SDS011;34212;51.018;13.586;2022-11-27T21:40:41;18.98;;;10.25;;
43154;SDS011;34212;51.018;13.586;2022-11-27T21:45:42;17.02;;;9.70;;
43154;SDS011;34212;51.018;13.586;2022-11-27T21:50:43;18.55;;;11.70;;
43154;SDS011;34212;51.018;13.586;2022-11-27T21:55:45;20.30;;;9.55;;
43154;SDS011;34212;51.018;13.586;2022-11-27T22:00:49;22.25;;;10.82;;
43154;SDS011;34212;51.018;13.586;2022-11-27T22:11:05;17.33;;;9.50;;
43154;SDS011;34212;51.018;13.586;2022-11-27T22:16:11;17.88;;;9.85;;
43154;SDS011;34212;51.018;13.586;2022-11-27T22:21:15;19.52;;;10.82;;
43154;SDS011;34212;51.018;13.586;2022-11-27T22:26:18;16.73;;;9.05;;
43154;SDS011;34212;51.018;13.586;2022-11-27T22:31:28;16.15;;;8.85;;
43154;SDS011;34212;51.018;13.586;2022-11-27T22:36:34;19.75;;;10.50;;
43154;SDS011;34212;51.018;13.586;2022-11-27T22:41:37;14.90;;;9.13;;
43154;SDS011;34212;51.018;13.586;2022-11-27T22:46:41;19.23;;;10.57;;
43154;SDS011;34212;51.018;13.586;2022-11-27T22:51:44;17.47;;;10.90;;
43154;SDS011;34212;51.018;13.586;2022-11-27T22:56:47;19.08;;;10.52;;
43154;SDS011;34212;51.018;13.586;2022-11-27T23:01:49;16.15;;;9.02;;
43154;SDS011;34212;51.018;13.586;2022-11-27T23:06:50;15.38;;;8.65;;
43154;SDS011;34212;51.018;13.586;2022-11-27T23:11:52;15.35;;;8.10;;
43154;SDS011;34212;51.018;13.586;2022-11-27T23:16:54;16.30;;;8.48;;
43154;SDS011;34212;51.018;13.586;2022-11-27T23:21:56;15.07;;;9.88;;
43154;SDS011;34212;51.018;13.586;2022-11-27T23:26:57;19.10;;;10.50;;
43154;SDS011;34212;51.018;13.586;2022-11-27T23:31:59;19.08;;;10.55;;
43154;SDS011;34212;51.018;13.586;2022-11-27T23:37:01;14.33;;;9.53;;
43154;SDS011;34212;51.018;13.586;2022-11-27T23:42:02;19.48;;;9.63;;
43154;SDS011;34212;51.018;13.586;2022-11-27T23:47:04;19.90;;;10.05;;
43154;SDS011;34212;51.018;13.586;2022-11-27T23:52:06;17.63;;;9.65;;
43154;SDS011;34212;51.018;13.586;2022-11-27T23:57:12;14.77;;;9.23;;
